Observations for Trim Patrick St
| Time | AQI | Temp °C | Hum % | Pres Pa | CO μg/m³ | H₂S μg/m³ | NO μg/m³ | NO₂ μg/m³ | O₃ μg/m³ | SO₂ μg/m³ | PM1 μg/m³ | PM2.5 μg/m³ | PM10 μg/m³ |
|---|---|---|---|---|---|---|---|---|---|---|---|---|---|
| Friday 31 July 2026 | |||||||||||||
| 22:42 | 3 | 15.6 | 62 | 74,110 | 0.06 | 5.99 | 2.61 | 14.45 | 51.61 | 0 | 2 | 6.36 | 7 |
| 22:41 | 3 | 15.7 | 62 | 74,098 | 0.05 | 7.63 | 2.47 | 26 | 50.92 | 0 | 2.86 | 6.37 | 7.01 |
| 22:40 | 3 | 15.7 | 62 | 74,080 | 0.07 | 6.67 | 2.5 | 21.21 | 49.18 | 0 | 2.86 | 7.15 | 7.86 |
| 22:39 | 3 | 15.7 | 62 | 74,068 | 0.06 | 6.3 | 2.29 | 21.8 | 50.37 | 0 | 3.71 | 7.86 | 8.64 |
| 22:38 | 3 | 15.7 | 62 | 74,057 | 0.06 | 6.46 | 1.88 | 12.66 | 52.83 | 0 | 4.57 | 8.6 | 9.46 |
| 22:37 | 3 | 15.8 | 61 | 74,039 | 0.04 | 7.6 | 1.62 | 21.03 | 52.82 | 0 | 2.86 | 7.17 | 7.89 |
| 22:36 | 3 | 15.8 | 62 | 74,019 | 0.06 | 7.47 | 1.86 | 24.8 | 54.43 | 0 | 3.71 | 9.38 | 10.32 |
| 22:35 | 3 | 15.8 | 59 | 73,994 | 0.07 | 7.01 | 1.56 | 19.39 | 42.99 | 0 | 3.71 | 8.85 | 9.74 |
| 22:34 | 3 | 15.9 | 62 | 73,968 | 0.05 | 7.48 | 1.75 | 16.53 | 51.12 | 0 | 2.86 | 7.9 | 8.69 |
| 22:32 | 3 | 15.9 | 61 | 73,901 | 0.08 | 7.94 | 1.37 | 18.56 | 51.12 | 0 | 5.43 | 9.43 | 10.37 |
| 22:31 | 3 | 15.9 | 59 | 73,852 | 0.1 | 7.58 | 1.11 | 24.66 | 45.73 | 0 | 5.43 | 11.03 | 12.13 |
| 22:30 | 3 | 16 | 61 | 73,825 | 0.09 | 7.06 | 1.2 | 22.62 | 47.64 | 0 | 5.43 | 10.17 | 11.18 |
| 22:29 | 3 | 16 | 61 | 73,791 | 0.08 | 7.68 | 1.51 | 20 | 49.96 | 0 | 6.29 | 11.61 | 12.77 |
| 22:28 | 3 | 16 | 61 | 73,778 | 0.09 | 7.24 | 1.6 | 19.09 | 49.57 | 0 | 6.29 | 11.61 | 12.77 |
| 22:27 | 3 | 16.1 | 61 | 73,762 | 0.08 | 7.79 | 1.32 | 26.85 | 47.05 | 0 | 6.29 | 10.87 | 11.96 |
| 22:26 | 3 | 16.1 | 61 | 73,740 | 0.08 | 7.53 | 1.43 | 29.56 | 44.21 | 0 | 5.43 | 10.87 | 11.96 |
| 22:25 | 3 | 16.1 | 61 | 73,715 | 0.07 | 7.48 | 1.34 | 17.11 | 48.79 | 0 | 5.43 | 9.42 | 10.36 |
| 22:24 | 3 | 16.1 | 60 | 73,683 | 0.08 | 7.76 | 1.1 | 26.59 | 49.22 | 0 | 5.43 | 11.7 | 12.88 |
| 22:23 | 3 | 16.2 | 61 | 73,642 | 0.06 | 7.66 | 1.42 | 18.9 | 50.43 | 0 | 5.43 | 10.15 | 11.17 |
| 22:22 | 3 | 16.2 | 60 | 73,616 | 0.07 | 8.44 | 1.42 | 26.47 | 47.58 | 0 | 4.57 | 11.72 | 12.89 |